createdAt,value
2019-05-26T00:01:33.761Z,7.17
2019-05-26T00:04:04.399Z,8.13
2019-05-26T00:06:34.102Z,7.75
2019-05-26T00:09:05.045Z,7.40
2019-05-26T00:11:34.799Z,7.33
2019-05-26T00:14:04.583Z,7.97
2019-05-26T00:16:34.061Z,7.10
2019-05-26T00:19:04.634Z,7.90
2019-05-26T00:21:34.622Z,8.20
2019-05-26T00:24:04.154Z,7.53
2019-05-26T00:26:33.913Z,8.35
2019-05-26T00:29:03.526Z,8.63
2019-05-26T00:31:33.305Z,8.48
2019-05-26T00:34:02.993Z,8.30
2019-05-26T00:36:32.819Z,8.70
2019-05-26T00:39:02.610Z,8.78
2019-05-26T00:41:32.342Z,8.48
2019-05-26T00:44:02.137Z,7.80
2019-05-26T00:46:35.020Z,8.35
2019-05-26T00:49:04.749Z,9.08
2019-05-26T00:51:34.319Z,8.93
2019-05-26T00:54:03.930Z,9.43
2019-05-26T00:56:33.409Z,10.20
2019-05-26T00:59:03.158Z,10.03
2019-05-26T01:01:32.840Z,10.18
2019-05-26T01:04:02.484Z,10.03
2019-05-26T01:06:31.949Z,10.32
2019-05-26T01:09:01.433Z,10.95
2019-05-26T01:11:32.347Z,9.88
2019-05-26T01:14:02.020Z,10.80
2019-05-26T01:16:31.773Z,10.63
2019-05-26T01:19:01.486Z,10.43
2019-05-26T01:21:31.061Z,10.70
2019-05-26T01:24:00.551Z,10.58
2019-05-26T01:26:30.413Z,10.55
2019-05-26T01:29:00.099Z,11.30
2019-05-26T01:31:29.808Z,11.45
2019-05-26T01:33:59.357Z,11.38
2019-05-26T01:36:29.094Z,10.43
2019-05-26T01:38:58.503Z,11.00
2019-05-26T01:41:28.111Z,10.45
2019-05-26T01:43:58.234Z,11.30
2019-05-26T01:46:27.741Z,10.80
2019-05-26T01:48:57.546Z,12.18
2019-05-26T01:51:27.306Z,10.68
2019-05-26T01:53:56.928Z,10.88
2019-05-26T01:56:26.595Z,10.50
2019-05-26T01:58:56.630Z,10.28
2019-05-26T02:01:26.348Z,10.78
2019-05-26T02:03:56.072Z,11.48
2019-05-26T02:06:25.763Z,11.53
2019-05-26T02:08:55.414Z,11.00
2019-05-26T02:11:24.984Z,11.43
2019-05-26T02:13:54.633Z,11.20
2019-05-26T02:16:24.095Z,12.20
2019-05-26T02:18:53.910Z,10.63
2019-05-26T02:21:23.516Z,10.93
2019-05-26T02:23:52.953Z,10.45
2019-05-26T02:26:22.806Z,11.83
2019-05-26T02:28:52.354Z,11.38
2019-05-26T02:31:22.003Z,11.30
2019-05-26T02:33:51.768Z,10.68
2019-05-26T02:36:21.348Z,10.93
2019-05-26T02:39:02.247Z,10.48
2019-05-26T02:41:23.220Z,11.05
2019-05-26T02:43:52.796Z,11.30
2019-05-26T02:46:22.525Z,11.50
2019-05-26T02:48:53.205Z,11.75
2019-05-26T02:51:22.990Z,11.00
2019-05-26T02:53:52.705Z,12.45
2019-05-26T02:56:22.224Z,11.25
2019-05-26T02:58:51.864Z,12.93
2019-05-26T03:01:21.422Z,11.25
2019-05-26T03:03:51.773Z,12.50
2019-05-26T03:06:22.454Z,12.60
2019-05-26T03:08:53.239Z,12.50
2019-05-26T03:11:22.923Z,12.13
2019-05-26T03:13:52.583Z,12.43
2019-05-26T03:16:22.502Z,12.55
2019-05-26T03:18:52.899Z,12.25
2019-05-26T03:21:22.397Z,13.08
2019-05-26T03:23:53.452Z,12.75
2019-05-26T03:26:23.231Z,12.80
2019-05-26T03:28:52.808Z,12.40
2019-05-26T03:31:22.747Z,13.22
2019-05-26T03:33:52.314Z,13.10
2019-05-26T03:36:22.158Z,13.43
2019-05-26T03:38:51.765Z,13.40
2019-05-26T03:41:21.595Z,13.18
2019-05-26T03:43:51.234Z,13.95
2019-05-26T03:46:21.061Z,13.60
2019-05-26T03:48:50.872Z,14.47
2019-05-26T03:51:21.854Z,14.58
2019-05-26T03:53:51.516Z,13.62
2019-05-26T03:56:21.203Z,14.03
2019-05-26T03:58:50.850Z,14.47
2019-05-26T04:01:20.941Z,14.38
2019-05-26T04:03:50.749Z,15.63
2019-05-26T04:06:20.778Z,16.00
2019-05-26T04:08:50.914Z,15.10
2019-05-26T04:11:20.416Z,16.00
2019-05-26T04:13:50.313Z,16.12
2019-05-26T04:16:19.950Z,14.87
2019-05-26T04:18:49.792Z,15.10
2019-05-26T04:21:19.379Z,15.32
2019-05-26T04:23:48.923Z,15.32
2019-05-26T04:26:18.567Z,14.87
2019-05-26T04:28:48.156Z,14.63
2019-05-26T04:31:17.962Z,15.60
2019-05-26T04:33:47.768Z,15.58
2019-05-26T04:36:17.591Z,15.15
2019-05-26T04:38:47.329Z,14.47
2019-05-26T04:41:22.875Z,14.28
2019-05-26T04:43:53.540Z,15.23
2019-05-26T04:46:23.119Z,13.68
2019-05-26T04:48:52.895Z,13.58
2019-05-26T04:51:22.603Z,13.43
2019-05-26T04:53:54.734Z,13.08
2019-05-26T04:56:24.379Z,14.07
2019-05-26T04:58:54.018Z,12.35
2019-05-26T05:01:23.882Z,12.95
2019-05-26T05:03:53.439Z,12.73
2019-05-26T05:06:22.931Z,12.78
2019-05-26T05:08:52.528Z,12.78
2019-05-26T05:11:22.089Z,12.93
2019-05-26T05:13:52.145Z,12.13
2019-05-26T05:16:21.593Z,11.35
2019-05-26T05:18:51.264Z,12.53
2019-05-26T05:21:20.741Z,11.48
2019-05-26T05:23:50.278Z,12.10
2019-05-26T05:26:20.125Z,11.90
2019-05-26T05:28:49.817Z,11.88
2019-05-26T05:31:19.409Z,12.25
2019-05-26T05:33:48.814Z,12.10
2019-05-26T05:36:18.755Z,12.45
2019-05-26T05:38:48.433Z,11.12
2019-05-26T05:41:17.987Z,9.73
2019-05-26T05:43:47.641Z,9.40
2019-05-26T05:46:17.150Z,8.73
2019-05-26T05:48:46.747Z,9.23
2019-05-26T05:51:16.370Z,8.30
2019-05-26T05:53:46.055Z,7.70
2019-05-26T05:56:15.700Z,7.20
2019-05-26T05:58:45.372Z,7.47
2019-05-26T06:01:15.111Z,7.72
2019-05-26T06:03:44.990Z,7.15
2019-05-26T06:06:14.708Z,5.87
2019-05-26T06:08:44.444Z,5.53
2019-05-26T06:11:16.910Z,5.80
2019-05-26T06:13:49.848Z,5.10
2019-05-26T06:16:19.716Z,5.30
2019-05-26T06:18:49.540Z,5.12
2019-05-26T06:21:19.132Z,5.12
2019-05-26T06:23:49.742Z,5.28
2019-05-26T06:26:19.174Z,4.90
2019-05-26T06:28:52.144Z,4.60
2019-05-26T06:31:20.011Z,5.35
2019-05-26T06:33:49.734Z,4.40
2019-05-26T06:36:19.456Z,4.62
2019-05-26T06:38:48.940Z,5.70
2019-05-26T06:41:32.253Z,5.10
2019-05-26T06:43:50.495Z,5.72
2019-05-26T06:46:19.967Z,5.50
2019-05-26T06:48:49.374Z,5.28
2019-05-26T06:51:18.983Z,5.33
2019-05-26T06:53:48.638Z,5.40
2019-05-26T06:56:18.228Z,4.80
2019-05-26T06:58:48.119Z,5.85
2019-05-26T07:01:17.388Z,5.65
2019-05-26T07:03:47.162Z,5.10
2019-05-26T07:06:17.805Z,5.55
2019-05-26T07:08:47.357Z,5.58
2019-05-26T07:11:16.964Z,5.95
2019-05-26T07:13:46.666Z,5.95
2019-05-26T07:16:16.084Z,5.55
2019-05-26T07:18:45.802Z,6.12
2019-05-26T07:21:15.514Z,7.03
2019-05-26T07:23:45.274Z,6.10
2019-05-26T07:26:14.888Z,6.12
2019-05-26T07:28:44.541Z,6.28
2019-05-26T07:31:14.511Z,7.17
2019-05-26T07:33:45.706Z,6.20
2019-05-26T07:36:15.411Z,7.95
2019-05-26T07:38:45.042Z,6.87
2019-05-26T07:41:14.829Z,7.70
2019-05-26T07:43:44.436Z,6.85
2019-05-26T07:46:14.070Z,7.03
2019-05-26T07:48:44.221Z,7.58
2019-05-26T07:51:14.225Z,7.50
2019-05-26T07:53:43.991Z,8.03
2019-05-26T07:56:13.688Z,7.97
2019-05-26T07:58:43.301Z,8.23
2019-05-26T08:01:13.135Z,8.48
2019-05-26T08:03:42.789Z,8.63
2019-05-26T08:06:12.757Z,7.58
2019-05-26T08:08:42.473Z,8.80
2019-05-26T08:11:12.089Z,8.55
2019-05-26T08:13:41.993Z,8.08
2019-05-26T08:16:11.957Z,8.75
2019-05-26T08:18:41.930Z,8.03
2019-05-26T08:21:11.580Z,8.25
2019-05-26T08:23:41.487Z,8.68
2019-05-26T08:26:11.173Z,9.20
2019-05-26T08:28:41.011Z,9.15
2019-05-26T08:31:13.382Z,8.88
2019-05-26T08:33:42.190Z,8.95
2019-05-26T08:36:12.305Z,8.50
2019-05-26T08:38:42.100Z,8.43
2019-05-26T08:41:12.191Z,8.30
2019-05-26T08:43:41.902Z,8.98
2019-05-26T08:46:15.289Z,7.95
2019-05-26T08:48:48.191Z,8.68
2019-05-26T08:51:17.921Z,8.70
2019-05-26T08:53:48.160Z,7.60
2019-05-26T08:56:17.754Z,8.13
2019-05-26T08:58:47.628Z,8.70
2019-05-26T09:01:19.770Z,8.68
2019-05-26T09:03:49.459Z,8.25
2019-05-26T09:06:19.440Z,6.80
2019-05-26T09:08:49.242Z,7.42
2019-05-26T09:11:19.058Z,7.58
2019-05-26T09:13:48.673Z,7.17
2019-05-26T09:16:18.348Z,8.05
2019-05-26T09:18:48.023Z,9.15
2019-05-26T09:21:17.768Z,7.83
2019-05-26T09:23:47.597Z,8.23
2019-05-26T09:26:17.216Z,8.55
2019-05-26T09:28:48.108Z,9.10
2019-05-26T09:31:18.468Z,7.30
2019-05-26T09:33:48.188Z,7.67
2019-05-26T09:36:17.926Z,7.22
2019-05-26T09:38:47.532Z,7.90
2019-05-26T09:41:17.056Z,6.78
2019-05-26T09:43:46.957Z,6.80
2019-05-26T09:46:16.601Z,6.58
2019-05-26T09:48:46.387Z,6.67
2019-05-26T09:51:16.295Z,6.03
2019-05-26T09:53:59.072Z,6.90
2019-05-26T09:56:18.128Z,6.72
2019-05-26T09:58:47.915Z,6.37
2019-05-26T10:01:18.151Z,5.83
2019-05-26T10:03:47.641Z,6.00
2019-05-26T10:06:17.725Z,6.10
2019-05-26T10:08:47.130Z,5.53
2019-05-26T10:11:17.987Z,6.67
2019-05-26T10:13:48.024Z,5.92
2019-05-26T10:16:17.666Z,6.37
2019-05-26T10:18:47.315Z,5.60
2019-05-26T10:21:18.438Z,5.15
2019-05-26T10:23:48.013Z,5.35
2019-05-26T10:26:21.634Z,5.30
2019-05-26T10:28:53.607Z,4.45
2019-05-26T10:31:23.263Z,5.42
2019-05-26T10:33:52.797Z,4.95
2019-05-26T10:36:22.447Z,4.95
2019-05-26T10:38:52.706Z,5.62
2019-05-26T10:41:23.291Z,5.12
2019-05-26T10:43:52.866Z,5.10
2019-05-26T10:46:22.228Z,5.97
2019-05-26T10:48:52.629Z,6.15
2019-05-26T10:51:22.118Z,6.30
2019-05-26T10:53:51.563Z,5.92
2019-05-26T10:56:21.139Z,5.05
2019-05-26T10:58:52.369Z,5.00
2019-05-26T11:01:21.746Z,5.17
2019-05-26T11:03:51.183Z,5.45
2019-05-26T11:06:20.655Z,4.78
2019-05-26T11:08:50.207Z,5.10
2019-05-26T11:11:19.689Z,3.90
2019-05-26T11:14:01.861Z,4.20
2019-05-26T11:16:20.190Z,3.35
2019-05-26T11:18:49.924Z,4.45
2019-05-26T11:21:19.316Z,4.22
2019-05-26T11:23:48.698Z,3.55
2019-05-26T11:26:18.319Z,3.40
2019-05-26T11:28:47.989Z,3.67
2019-05-26T11:31:17.475Z,3.50
2019-05-26T11:33:47.057Z,3.50
2019-05-26T11:36:16.564Z,3.27
2019-05-26T11:38:46.107Z,3.35
2019-05-26T11:41:15.923Z,3.47
2019-05-26T11:43:45.456Z,3.60
2019-05-26T11:46:16.773Z,3.67
2019-05-26T11:48:46.405Z,4.37
2019-05-26T11:51:15.968Z,4.80
2019-05-26T11:53:45.819Z,5.22
2019-05-26T11:56:15.695Z,5.53
2019-05-26T11:58:46.059Z,3.72
2019-05-26T12:01:15.774Z,4.12
2019-05-26T12:03:45.462Z,4.55
2019-05-26T12:06:15.105Z,4.25
2019-05-26T12:08:44.862Z,4.30
2019-05-26T12:11:14.472Z,4.45
2019-05-26T12:13:44.042Z,5.28
2019-05-26T12:16:13.747Z,5.10
2019-05-26T12:18:44.926Z,5.15
2019-05-26T12:21:14.804Z,5.45
2019-05-26T12:23:44.887Z,4.75
2019-05-26T12:26:15.305Z,5.05
2019-05-26T12:28:45.726Z,4.97
2019-05-26T12:31:15.214Z,4.53
2019-05-26T12:33:45.067Z,3.87
2019-05-26T12:36:14.364Z,4.60
2019-05-26T12:38:53.022Z,4.65
2019-05-26T12:41:22.669Z,4.85
2019-05-26T12:43:51.855Z,4.15
2019-05-26T12:46:22.229Z,4.50
2019-05-26T12:48:51.798Z,4.22
2019-05-26T12:51:21.325Z,5.20
2019-05-26T12:53:50.986Z,6.10
2019-05-26T12:56:20.558Z,5.58
2019-05-26T12:58:50.079Z,5.47
2019-05-26T13:01:19.737Z,5.53
2019-05-26T13:03:49.404Z,4.78
2019-05-26T13:06:20.110Z,4.90
2019-05-26T13:08:49.917Z,4.35
2019-05-26T13:11:22.683Z,4.15
2019-05-26T13:13:52.925Z,4.70
2019-05-26T13:16:22.660Z,4.60
2019-05-26T13:18:52.409Z,5.28
2019-05-26T13:21:23.922Z,5.45
2019-05-26T13:23:53.135Z,4.40
2019-05-26T13:26:22.782Z,4.60
2019-05-26T13:28:52.386Z,5.08
2019-05-26T13:31:21.910Z,4.92
2019-05-26T13:33:52.527Z,4.00
2019-05-26T13:36:22.121Z,4.05
2019-05-26T13:38:51.770Z,4.42
2019-05-26T13:41:21.405Z,4.20
2019-05-26T13:43:52.175Z,4.30
2019-05-26T13:46:21.721Z,4.05
2019-05-26T13:48:51.213Z,4.00
2019-05-26T13:51:22.122Z,3.67
2019-05-26T13:53:51.594Z,3.70
2019-05-26T13:56:21.107Z,3.50
2019-05-26T13:58:50.621Z,3.35
2019-05-26T14:01:20.542Z,3.40
2019-05-26T14:03:50.135Z,3.60
2019-05-26T14:06:19.592Z,3.50
2019-05-26T14:08:50.106Z,3.62
2019-05-26T14:11:19.667Z,3.87
2019-05-26T14:13:49.310Z,3.50
2019-05-26T14:16:19.533Z,3.55
2019-05-26T14:18:49.024Z,3.45
2019-05-26T14:21:18.652Z,3.37
2019-05-26T14:23:48.216Z,2.87
2019-05-26T14:26:17.747Z,2.90
2019-05-26T14:28:47.504Z,3.22
2019-05-26T14:31:17.108Z,3.50
2019-05-26T14:33:57.041Z,3.10
2019-05-26T14:36:26.734Z,3.12
2019-05-26T14:38:56.859Z,3.35
2019-05-26T14:41:26.915Z,2.92
2019-05-26T14:43:56.442Z,3.15
2019-05-26T14:46:26.346Z,3.25
2019-05-26T14:48:56.059Z,3.50
2019-05-26T14:51:25.845Z,3.50
2019-05-26T14:53:55.800Z,3.30
2019-05-26T14:56:25.430Z,3.10
2019-05-26T14:58:55.114Z,2.90
2019-05-26T15:01:24.780Z,2.85
2019-05-26T15:03:54.701Z,2.85
2019-05-26T15:06:24.351Z,2.65
2019-05-26T15:08:53.958Z,2.92
2019-05-26T15:11:23.688Z,2.72
2019-05-26T15:13:53.514Z,2.70
2019-05-26T15:16:23.554Z,3.40
2019-05-26T15:18:53.691Z,3.08
2019-05-26T15:21:23.351Z,2.90
2019-05-26T15:23:53.075Z,3.02
2019-05-26T15:26:24.105Z,3.10
2019-05-26T15:28:53.917Z,3.25
2019-05-26T15:31:23.863Z,3.17
2019-05-26T15:33:53.577Z,3.30
2019-05-26T15:36:23.361Z,2.90
2019-05-26T15:38:53.238Z,3.30
2019-05-26T15:41:24.374Z,3.00
2019-05-26T15:43:54.513Z,3.10
2019-05-26T15:46:25.713Z,3.10
2019-05-26T15:48:57.163Z,3.00
2019-05-26T15:51:27.085Z,3.15
2019-05-26T15:53:56.730Z,3.22
2019-05-26T15:56:26.781Z,3.52
2019-05-26T15:58:58.117Z,2.85
2019-05-26T16:01:29.366Z,3.35
2019-05-26T16:03:59.293Z,3.15
2019-05-26T16:06:28.992Z,4.00
2019-05-26T16:08:58.692Z,3.15
2019-05-26T16:11:28.639Z,3.67
2019-05-26T16:13:58.634Z,3.50
2019-05-26T16:16:40.689Z,3.12
2019-05-26T16:19:00.453Z,3.55
2019-05-26T16:21:29.902Z,2.98
2019-05-26T16:23:59.631Z,3.08
2019-05-26T16:26:29.362Z,2.80
2019-05-26T16:28:59.249Z,3.50
2019-05-26T16:31:28.970Z,3.33
2019-05-26T16:33:59.829Z,3.10
2019-05-26T16:36:29.378Z,3.40
2019-05-26T16:38:59.063Z,3.40
2019-05-26T16:41:28.666Z,3.08
2019-05-26T16:43:58.270Z,3.40
2019-05-26T16:46:27.704Z,3.55
2019-05-26T16:48:57.508Z,3.22
2019-05-26T16:51:27.390Z,3.67
2019-05-26T16:53:56.880Z,3.72
2019-05-26T16:56:26.818Z,3.20
2019-05-26T16:58:56.731Z,3.70
2019-05-26T17:01:26.341Z,3.30
2019-05-26T17:03:55.898Z,3.80
2019-05-26T17:06:25.415Z,3.33
2019-05-26T17:08:55.017Z,3.95
2019-05-26T17:11:24.857Z,3.47
2019-05-26T17:13:54.430Z,3.52
2019-05-26T17:16:24.489Z,3.27
2019-05-26T17:18:54.469Z,3.98
2019-05-26T17:21:25.272Z,3.95
2019-05-26T17:23:55.825Z,3.50
2019-05-26T17:26:25.491Z,3.77
2019-05-26T17:28:55.666Z,3.60
2019-05-26T17:31:25.386Z,3.80
2019-05-26T17:33:55.231Z,4.58
2019-05-26T17:36:25.138Z,3.90
2019-05-26T17:38:55.050Z,3.90
2019-05-26T17:41:24.840Z,3.42
2019-05-26T17:43:54.468Z,3.90
2019-05-26T17:46:24.104Z,3.75
2019-05-26T17:48:53.708Z,4.40
2019-05-26T17:51:23.378Z,4.30
2019-05-26T17:53:53.537Z,3.80
2019-05-26T17:56:23.560Z,4.20
2019-05-26T17:58:53.467Z,4.55
2019-05-26T18:01:23.079Z,4.05
2019-05-26T18:03:52.983Z,3.92
2019-05-26T18:06:22.654Z,4.40
2019-05-26T18:08:52.609Z,4.37
2019-05-26T18:11:23.348Z,4.00
2019-05-26T18:13:53.539Z,3.95
2019-05-26T18:16:23.077Z,3.87
2019-05-26T18:18:52.808Z,3.75
2019-05-26T18:21:22.363Z,3.60
2019-05-26T18:23:51.896Z,3.70
2019-05-26T18:26:21.411Z,4.53
2019-05-26T18:28:51.109Z,4.17
2019-05-26T18:31:20.789Z,4.17
2019-05-26T18:33:50.327Z,3.77
2019-05-26T18:36:19.987Z,4.33
2019-05-26T18:38:49.819Z,4.35
2019-05-26T18:41:19.660Z,4.90
2019-05-26T18:43:49.483Z,4.90
2019-05-26T18:46:20.306Z,5.10
2019-05-26T18:48:50.031Z,4.95
2019-05-26T18:51:19.667Z,9.05
2019-05-26T18:53:49.816Z,17.80
2019-05-26T18:56:20.581Z,16.35
2019-05-26T18:58:50.255Z,8.65
2019-05-26T19:01:19.737Z,7.25
2019-05-26T19:03:49.705Z,6.78
2019-05-26T19:06:19.619Z,4.40
2019-05-26T19:08:49.435Z,4.20
2019-05-26T19:11:19.083Z,6.08
2019-05-26T19:13:48.625Z,6.65
2019-05-26T19:16:18.283Z,5.87
2019-05-26T19:18:49.221Z,6.10
2019-05-26T19:21:18.980Z,5.08
2019-05-26T19:23:48.489Z,5.33
2019-05-26T19:26:18.227Z,5.20
2019-05-26T19:28:47.904Z,5.35
2019-05-26T19:31:18.771Z,5.97
2019-05-26T19:33:48.395Z,6.22
2019-05-26T19:36:18.131Z,5.87
2019-05-26T19:38:47.691Z,9.65
2019-05-26T19:41:17.379Z,7.65
2019-05-26T19:43:47.087Z,7.62
2019-05-26T19:46:16.735Z,8.05
2019-05-26T19:48:46.428Z,8.53
2019-05-26T19:51:16.153Z,6.28
2019-05-26T19:53:46.019Z,7.95
2019-05-26T19:56:15.661Z,10.78
2019-05-26T19:58:45.366Z,10.53
2019-05-26T20:01:15.050Z,10.30
2019-05-26T20:03:44.609Z,7.37
2019-05-26T20:06:14.046Z,8.68
2019-05-26T20:08:43.696Z,16.60
2019-05-26T20:11:14.438Z,9.05
2019-05-26T20:13:44.255Z,8.43
2019-05-26T20:16:13.886Z,8.50
2019-05-26T20:18:43.671Z,10.82
2019-05-26T20:21:13.292Z,10.25
2019-05-26T20:23:42.845Z,8.98
2019-05-26T20:26:15.988Z,8.55
2019-05-26T20:28:47.100Z,7.92
2019-05-26T20:31:16.946Z,10.30
2019-05-26T20:33:46.538Z,10.75
2019-05-26T20:36:16.398Z,11.25
2019-05-26T20:38:46.197Z,11.78
2019-05-26T20:41:17.332Z,11.55
2019-05-26T20:43:47.008Z,11.30
2019-05-26T20:46:16.739Z,10.98
2019-05-26T20:48:46.469Z,10.43
2019-05-26T20:51:16.313Z,11.20
2019-05-26T20:53:45.985Z,11.65
2019-05-26T20:56:15.640Z,11.05
2019-05-26T20:58:45.668Z,9.33
2019-05-26T21:01:15.341Z,8.38
2019-05-26T21:03:44.924Z,9.30
2019-05-26T21:06:14.715Z,9.80
2019-05-26T21:08:44.262Z,9.68
2019-05-26T21:11:14.243Z,10.20
2019-05-26T21:13:43.926Z,10.58
2019-05-26T21:16:13.473Z,11.30
2019-05-26T21:18:43.148Z,10.58
2019-05-26T21:21:13.206Z,12.10
2019-05-26T21:23:42.845Z,12.35
2019-05-26T21:26:12.537Z,13.08
2019-05-26T21:28:42.504Z,12.00
2019-05-26T21:31:12.415Z,12.93
2019-05-26T21:33:42.327Z,12.10
2019-05-26T21:36:12.154Z,12.07
2019-05-26T21:38:41.786Z,10.65
2019-05-26T21:41:11.782Z,10.28
2019-05-26T21:43:41.371Z,10.70
2019-05-26T21:46:11.093Z,9.80
2019-05-26T21:48:41.149Z,10.70
2019-05-26T21:51:11.040Z,10.70
2019-05-26T21:53:40.683Z,10.90
2019-05-26T21:56:10.331Z,11.93
2019-05-26T21:58:40.034Z,12.70
2019-05-26T22:01:09.723Z,13.65
2019-05-26T22:03:39.451Z,12.75
2019-05-26T22:06:09.207Z,12.82
2019-05-26T22:08:39.142Z,11.88
2019-05-26T22:11:10.018Z,12.93
2019-05-26T22:13:39.737Z,13.32
2019-05-26T22:16:09.391Z,13.15
2019-05-26T22:18:39.185Z,12.82
2019-05-26T22:21:08.891Z,13.22
2019-05-26T22:23:38.937Z,14.73
2019-05-26T22:26:08.616Z,15.10
2019-05-26T22:28:38.941Z,15.03
2019-05-26T22:31:08.741Z,16.48
2019-05-26T22:33:38.781Z,14.55
2019-05-26T22:36:08.361Z,13.13
2019-05-26T22:38:38.392Z,14.15
2019-05-26T22:41:08.075Z,13.90
2019-05-26T22:43:37.947Z,14.45
2019-05-26T22:46:07.471Z,17.62
2019-05-26T22:48:37.203Z,18.37
2019-05-26T22:51:07.091Z,18.07
2019-05-26T22:53:36.975Z,19.48
2019-05-26T22:56:06.650Z,19.30
2019-05-26T22:58:36.294Z,19.82
2019-05-26T23:01:06.003Z,17.92
2019-05-26T23:03:36.126Z,18.82
2019-05-26T23:06:06.928Z,19.17
2019-05-26T23:08:36.529Z,18.48
2019-05-26T23:11:06.497Z,20.00
2019-05-26T23:13:36.049Z,18.77
2019-05-26T23:16:06.109Z,20.45
2019-05-26T23:18:35.777Z,19.05
2019-05-26T23:21:05.767Z,21.05
2019-05-26T23:23:35.402Z,19.35
2019-05-26T23:26:05.154Z,20.32
2019-05-26T23:28:35.284Z,19.35
2019-05-26T23:31:04.981Z,19.12
2019-05-26T23:33:34.689Z,19.80
2019-05-26T23:36:04.252Z,19.40
2019-05-26T23:38:33.858Z,19.92
2019-05-26T23:41:03.103Z,19.23
2019-05-26T23:43:32.634Z,20.43
2019-05-26T23:46:02.496Z,20.27
2019-05-26T23:48:32.020Z,19.62
2019-05-26T23:51:01.469Z,22.20
2019-05-26T23:53:30.831Z,23.00
2019-05-26T23:56:01.326Z,22.50
2019-05-26T23:58:30.973Z,23.32
